Terminal Aerodrome Forecast
Issued by NWS Twin Cities, MN

Home | Current Version | Previous Version | Text Only | Print | Product List | Glossary Off
Versions: 1 2 3 4 5 6 7 8 9 10 11 12 13 14 15 16 17 18 19 20 21 22 23 24 25 26 27 28 29

000
FTUS43 KMPX 291137
TAFMSP
TAF
KMSP 291137Z 2912/3018 32015G24KT 6SM -SN BKN016 OVC025
     FM291300 32018G26KT P6SM OVC020
     FM292200 33015G25KT P6SM SCT025
     FM300300 35010KT P6SM SKC
     FM300900 VRB03KT P6SM SCT100 BKN250
     FM301500 14005KT P6SM BKN100=

USA.gov is the U.S. government's official web portal to all federal, state and local government web resources and services.